Time;durP1;ratioP1;P1;durP2;ratioP2;P2;SDS_P1;SDS_P2;PMS_P1;PMS_P2;Temp;Humidity;BMP_temperature;BMP_pressure;BME280_temperature;BME280_humidity;BME280_pressure;Samples;Min_cycle;Max_cycle;Signal;HPM_P1;HPM_P2
2022/08/28 00:01:27;;;;;;;0.57;0.57;;;23.40;59.70;;;;;;6213784;28;20087;-72
2022/08/28 00:04:27;;;;;;;0.50;0.50;;;23.40;59.60;;;;;;6214822;28;20283;-72
2022/08/28 00:07:28;;;;;;;0.70;0.60;;;23.40;59.60;;;;;;6215544;28;20030;-72
2022/08/28 00:10:29;;;;;;;0.60;0.50;;;23.40;59.70;;;;;;6216196;28;20105;-73
2022/08/28 00:13:31;;;;;;;0.77;0.55;;;23.40;59.60;;;;;;6215171;28;20506;-71
2022/08/28 00:16:32;;;;;;;0.50;0.50;;;23.40;59.70;;;;;;6214694;28;20018;-72
2022/08/28 00:19:33;;;;;;;0.60;0.50;;;23.40;59.60;;;;;;6212740;28;20415;-72
2022/08/28 00:22:37;;;;;;;0.70;0.70;;;23.40;59.60;;;;;;6214562;28;20029;-71
2022/08/28 00:25:37;;;;;;;0.57;0.57;;;23.40;59.60;;;;;;6214820;28;20484;-72
2022/08/28 00:28:38;;;;;;;0.70;0.70;;;23.40;59.60;;;;;;6215331;28;20026;-72
2022/08/28 00:31:38;;;;;;;0.65;0.65;;;23.40;59.60;;;;;;6215849;28;20021;-72
2022/08/28 00:34:39;;;;;;;0.93;0.70;;;23.40;59.70;;;;;;6214294;28;20480;-72
2022/08/28 00:37:40;;;;;;;0.60;0.60;;;23.40;59.70;;;;;;6213821;28;20129;-72
2022/08/28 00:40:43;;;;;;;0.65;0.50;;;23.40;59.60;;;;;;6212982;28;20054;-71
2022/08/28 00:43:46;;;;;;;0.60;0.60;;;23.40;59.60;;;;;;6214645;28;20034;-72
2022/08/28 00:46:50;;;;;;;0.65;0.60;;;23.40;59.60;;;;;;6213429;28;20388;-72
2022/08/28 00:49:53;;;;;;;0.60;0.60;;;23.40;59.70;;;;;;6214657;28;20469;-72
2022/08/28 00:52:59;;;;;;;0.50;0.50;;;23.40;59.70;;;;;;6214751;28;20018;-71
2022/08/28 00:56:07;;;;;;;0.50;0.50;;;23.40;59.70;;;;;;6214662;28;20025;-72
2022/08/28 00:59:13;;;;;;;0.70;0.70;;;23.40;59.70;;;;;;6214101;28;20525;-72
2022/08/28 01:02:14;;;;;;;1.15;0.60;;;23.30;60.40;;;;;;6215222;28;20026;-72
2022/08/28 01:05:16;;;;;;;0.70;0.57;;;23.40;59.70;;;;;;6213993;28;20037;-72
2022/08/28 01:08:17;;;;;;;0.40;0.40;;;23.40;59.70;;;;;;6214141;28;20105;-72
2022/08/28 01:11:19;;;;;;;0.40;0.40;;;23.40;59.70;;;;;;6213846;28;20047;-72
2022/08/28 01:14:22;;;;;;;0.60;0.60;;;23.40;59.70;;;;;;6214529;28;20473;-72
2022/08/28 01:17:24;;;;;;;0.40;0.40;;;23.40;59.70;;;;;;6213481;28;20034;-72
2022/08/28 01:20:29;;;;;;;0.60;0.55;;;23.40;59.70;;;;;;6215315;28;20029;-72
2022/08/28 01:23:54;;;;;;;0.60;0.60;;;23.40;59.70;;;;;;6213896;28;20042;-72
2022/08/28 01:26:54;;;;;;;0.50;0.50;;;23.40;59.70;;;;;;6213889;28;20101;-72
2022/08/28 01:29:56;;;;;;;0.85;0.60;;;23.40;59.70;;;;;;6213491;28;20384;-71
2022/08/28 01:32:57;;;;;;;0.70;0.63;;;23.40;59.60;;;;;;6223367;28;20034;-71
2022/08/28 01:35:58;;;;;;;0.40;0.40;;;23.40;59.70;;;;;;6224453;28;20038;-71
2022/08/28 01:39:14;;;;;;;0.68;0.60;;;23.40;59.70;;;;;;6218379;28;20040;-72
2022/08/28 01:42:15;;;;;;;0.75;0.50;;;23.40;59.70;;;;;;6217877;28;20053;-72
2022/08/28 01:45:19;;;;;;;0.60;0.60;;;23.40;59.70;;;;;;6223845;28;20117;-72
2022/08/28 01:48:22;;;;;;;0.50;0.50;;;23.40;59.70;;;;;;6217635;28;20029;-72
2022/08/28 01:51:22;;;;;;;0.75;0.70;;;23.40;59.70;;;;;;6217768;28;20026;-72
2022/08/28 01:54:24;;;;;;;0.70;0.60;;;23.40;59.70;;;;;;6217427;28;20400;-72
2022/08/28 01:57:25;;;;;;;0.50;0.50;;;23.40;59.70;;;;;;6217000;28;20071;-72
2022/08/28 02:00:27;;;;;;;0.60;0.60;;;23.40;59.70;;;;;;6217502;28;20026;-71
2022/08/28 02:03:28;;;;;;;0.50;0.50;;;23.40;59.70;;;;;;6217232;28;20492;-72
2022/08/28 02:06:30;;;;;;;0.50;0.50;;;23.40;59.70;;;;;;6218264;28;20057;-72
2022/08/28 02:09:30;;;;;;;0.50;0.50;;;23.40;59.70;;;;;;6217675;28;20424;-72
2022/08/28 02:12:31;;;;;;;0.50;0.50;;;23.40;59.70;;;;;;6216878;28;20022;-72
2022/08/28 02:15:35;;;;;;;0.60;0.60;;;23.40;59.70;;;;;;6216945;28;20715;-72
2022/08/28 02:18:37;;;;;;;0.45;0.45;;;23.40;59.70;;;;;;6217678;28;20487;-72
2022/08/28 02:21:38;;;;;;;0.50;0.50;;;23.40;59.70;;;;;;6226652;28;20046;-72
2022/08/28 02:24:39;;;;;;;0.68;0.60;;;23.30;59.60;;;;;;6217041;28;20068;-72
2022/08/28 02:27:40;;;;;;;0.70;0.70;;;23.40;59.70;;;;;;6217199;28;20030;-72
2022/08/28 02:30:41;;;;;;;0.95;0.60;;;23.40;59.70;;;;;;6291571;28;20603;-72
2022/08/28 02:33:44;;;;;;;0.43;0.43;;;23.40;59.70;;;;;;6291724;28;20115;-72
2022/08/28 02:36:44;;;;;;;0.88;0.68;;;23.40;59.70;;;;;;6291604;28;20048;-72
2022/08/28 02:39:46;;;;;;;0.65;0.50;;;23.40;59.70;;;;;;6290987;28;20477;-72
2022/08/28 02:42:47;;;;;;;1.00;0.80;;;23.40;60.40;;;;;;6290426;28;20036;-72
2022/08/28 02:45:48;;;;;;;0.70;0.52;;;23.40;60.50;;;;;;6291590;28;20414;-72
2022/08/28 02:48:49;;;;;;;0.60;0.60;;;23.40;59.70;;;;;;6293015;28;20020;-72
2022/08/28 02:51:50;;;;;;;0.43;0.43;;;23.40;59.70;;;;;;6290143;28;20070;-71
2022/08/28 02:54:50;;;;;;;0.50;0.50;;;23.40;59.70;;;;;;6292153;28;20092;-71
2022/08/28 02:57:51;;;;;;;0.73;0.70;;;23.40;59.70;;;;;;6292491;28;20043;-72
2022/08/28 03:00:53;;;;;;;0.50;0.50;;;23.40;59.70;;;;;;6267073;28;20105;-72
2022/08/28 03:03:54;;;;;;;0.45;0.45;;;23.40;59.70;;;;;;6216234;28;20038;-72
2022/08/28 03:06:54;;;;;;;0.40;0.40;;;23.40;59.70;;;;;;6216088;28;20065;-72
2022/08/28 03:09:55;;;;;;;0.50;0.50;;;23.40;59.70;;;;;;6216054;28;20050;-72
2022/08/28 03:12:56;;;;;;;0.80;0.68;;;23.40;59.70;;;;;;6216033;28;20389;-72
2022/08/28 03:15:57;;;;;;;0.40;0.40;;;23.40;59.70;;;;;;6216082;28;20104;-72
2022/08/28 03:18:58;;;;;;;0.50;0.50;;;23.40;59.70;;;;;;6215583;28;20018;-72
2022/08/28 03:21:59;;;;;;;0.55;0.55;;;23.40;59.70;;;;;;6222259;28;20068;-72
2022/08/28 03:24:59;;;;;;;0.57;0.55;;;23.40;59.70;;;;;;6215552;28;20099;-72
2022/08/28 03:28:00;;;;;;;0.60;0.60;;;23.40;59.70;;;;;;6215916;28;20053;-72
2022/08/28 03:31:02;;;;;;;0.40;0.40;;;23.40;59.70;;;;;;6217163;28;20041;-73
2022/08/28 03:34:03;;;;;;;0.52;0.50;;;23.40;59.70;;;;;;6217375;28;20092;-72
2022/08/28 03:37:04;;;;;;;0.70;0.70;;;23.40;59.70;;;;;;6216669;28;20061;-71
2022/08/28 03:40:05;;;;;;;0.68;0.60;;;23.30;59.60;;;;;;6216386;28;20057;-72
2022/08/28 03:43:06;;;;;;;0.40;0.40;;;23.30;59.60;;;;;;6216685;28;20042;-72
2022/08/28 03:46:08;;;;;;;0.50;0.50;;;23.30;59.60;;;;;;6216919;28;20034;-73
2022/08/28 03:49:08;;;;;;;0.60;0.50;;;23.30;59.60;;;;;;6216634;28;20101;-72
2022/08/28 03:52:09;;;;;;;0.77;0.57;;;23.30;59.60;;;;;;6223341;28;20073;-72
2022/08/28 03:55:11;;;;;;;0.50;0.50;;;23.40;59.70;;;;;;6212364;28;20033;-72
2022/08/28 03:58:12;;;;;;;0.90;0.63;;;23.40;59.70;;;;;;6216464;28;20022;-72
2022/08/28 04:01:13;;;;;;;1.00;0.80;;;23.40;59.70;;;;;;6220017;28;20961;-71
2022/08/28 04:04:13;;;;;;;0.60;0.50;;;23.30;59.60;;;;;;6222979;28;20038;-72
2022/08/28 04:07:15;;;;;;;0.57;0.57;;;23.40;59.70;;;;;;6215540;28;20116;-72
2022/08/28 04:10:16;;;;;;;0.55;0.55;;;23.30;59.60;;;;;;6219439;28;20112;-72
2022/08/28 04:13:19;;;;;;;0.60;0.50;;;23.40;59.70;;;;;;6214813;28;20038;-72
2022/08/28 04:16:20;;;;;;;0.57;0.50;;;23.30;59.70;;;;;;6214992;28;20026;-72
2022/08/28 04:19:20;;;;;;;0.57;0.52;;;23.40;59.70;;;;;;6213838;28;20079;-72
2022/08/28 04:22:21;;;;;;;0.50;0.40;;;23.40;59.70;;;;;;6218110;28;20065;-72
2022/08/28 04:25:22;;;;;;;0.50;0.50;;;23.30;59.70;;;;;;6215213;28;20037;-72
2022/08/28 04:28:24;;;;;;;0.60;0.60;;;23.30;59.60;;;;;;6214631;28;20030;-72
2022/08/28 04:31:26;;;;;;;0.80;0.43;;;23.30;59.60;;;;;;6216061;28;20515;-72
2022/08/28 04:34:27;;;;;;;0.60;0.60;;;23.30;59.70;;;;;;6216115;28;20037;-72
2022/08/28 04:37:28;;;;;;;0.43;0.43;;;23.40;59.70;;;;;;6215975;28;20030;-72
2022/08/28 04:40:28;;;;;;;0.50;0.50;;;23.40;59.70;;;;;;6215602;28;20050;-72
2022/08/28 04:43:29;;;;;;;0.50;0.40;;;23.40;59.70;;;;;;6214305;28;20133;-72
2022/08/28 04:46:30;;;;;;;0.57;0.50;;;23.30;59.70;;;;;;6215230;28;20025;-72
2022/08/28 04:49:31;;;;;;;0.90;0.70;;;23.40;59.70;;;;;;6215646;28;20022;-72
2022/08/28 04:52:32;;;;;;;1.13;0.70;;;23.40;59.70;;;;;;6215886;28;20018;-72
2022/08/28 04:55:32;;;;;;;0.70;0.50;;;23.30;59.70;;;;;;6213487;28;20026;-72
2022/08/28 04:58:33;;;;;;;0.85;0.70;;;23.40;59.70;;;;;;6214927;28;20032;-72
2022/08/28 05:01:35;;;;;;;0.38;0.38;;;23.30;59.70;;;;;;6213774;28;20057;-72
2022/08/28 05:04:35;;;;;;;0.55;0.55;;;23.30;59.70;;;;;;6213842;28;20488;-72
2022/08/28 05:07:36;;;;;;;0.50;0.50;;;23.40;59.70;;;;;;6214241;28;20087;-72
2022/08/28 05:10:38;;;;;;;0.70;0.70;;;23.30;59.70;;;;;;6213674;28;20037;-72
2022/08/28 05:13:39;;;;;;;0.50;0.50;;;23.40;59.70;;;;;;6213526;28;20022;-72
2022/08/28 05:16:47;;;;;;;0.88;0.60;;;23.40;59.70;;;;;;6214102;28;20033;-72
2022/08/28 05:19:47;;;;;;;0.63;0.50;;;23.30;59.70;;;;;;6218737;28;20022;-72
2022/08/28 05:22:48;;;;;;;0.70;0.70;;;23.30;59.70;;;;;;6213927;28;20030;-72
2022/08/28 05:25:49;;;;;;;0.60;0.60;;;23.30;59.70;;;;;;6213433;28;20022;-72
2022/08/28 05:28:50;;;;;;;1.00;0.52;;;23.30;59.70;;;;;;6213705;28;20053;-72
2022/08/28 05:31:51;;;;;;;0.57;0.57;;;23.30;59.70;;;;;;6214488;28;20022;-72
2022/08/28 05:34:53;;;;;;;0.43;0.40;;;23.30;59.70;;;;;;6213969;28;20014;-71
2022/08/28 05:37:54;;;;;;;0.70;0.70;;;23.30;59.70;;;;;;6214165;28;20018;-72
2022/08/28 05:40:55;;;;;;;0.63;0.50;;;23.30;59.70;;;;;;6211828;28;20073;-71
2022/08/28 05:44:05;;;;;;;0.50;0.45;;;23.30;59.70;;;;;;6213245;28;20034;-71
2022/08/28 05:47:06;;;;;;;1.15;0.70;;;23.30;59.70;;;;;;6214363;28;20040;-71
2022/08/28 05:50:07;;;;;;;0.57;0.57;;;23.40;59.70;;;;;;6219255;28;20030;-72
2022/08/28 05:53:08;;;;;;;0.75;0.60;;;23.30;59.70;;;;;;6213352;28;20368;-72
2022/08/28 05:56:11;;;;;;;0.63;0.63;;;23.30;59.70;;;;;;6213270;28;20064;-72
2022/08/28 05:59:13;;;;;;;0.65;0.50;;;23.30;59.70;;;;;;6214884;28;20021;-71
2022/08/28 06:02:14;;;;;;;0.47;0.47;;;23.30;59.70;;;;;;6214685;28;20582;-72
2022/08/28 06:05:14;;;;;;;0.30;0.30;;;23.30;59.70;;;;;;6214726;28;20034;-72
2022/08/28 06:08:15;;;;;;;0.90;0.60;;;23.30;59.80;;;;;;6213099;28;20536;-72
2022/08/28 06:11:19;;;;;;;0.40;0.40;;;23.30;59.70;;;;;;6213253;28;20045;-72
2022/08/28 06:14:20;;;;;;;0.47;0.47;;;23.30;59.70;;;;;;6212659;28;20539;-71
2022/08/28 06:17:22;;;;;;;0.93;0.60;;;23.30;59.70;;;;;;6213198;28;20086;-71
2022/08/28 06:20:23;;;;;;;0.40;0.40;;;23.30;59.70;;;;;;6218085;28;20026;-72
2022/08/28 06:23:24;;;;;;;0.40;0.40;;;23.30;59.70;;;;;;6218619;28;20041;-72
2022/08/28 06:26:25;;;;;;;0.60;0.60;;;23.30;59.80;;;;;;6217415;28;20419;-72
2022/08/28 06:29:26;;;;;;;0.55;0.40;;;23.30;59.80;;;;;;6220030;28;20055;-72
2022/08/28 06:32:27;;;;;;;0.47;0.47;;;23.30;59.80;;;;;;6217388;28;20022;-72
2022/08/28 06:35:28;;;;;;;0.55;0.50;;;23.30;59.80;;;;;;6216413;28;20548;-71
2022/08/28 06:38:29;;;;;;;0.80;0.63;;;23.30;59.70;;;;;;6217224;28;20048;-71
2022/08/28 06:41:31;;;;;;;0.93;0.80;;;23.30;59.80;;;;;;6218107;28;20046;-72
2022/08/28 06:44:32;;;;;;;0.98;0.50;;;23.30;59.70;;;;;;6217642;28;20034;-72
2022/08/28 06:47:32;;;;;;;0.60;0.60;;;23.30;59.70;;;;;;6217107;28;20384;-72
2022/08/28 06:50:36;;;;;;;0.50;0.50;;;23.30;59.80;;;;;;6216824;28;20029;-72
2022/08/28 06:53:38;;;;;;;0.50;0.50;;;23.30;60.60;;;;;;6217169;28;20030;-72
2022/08/28 06:56:39;;;;;;;0.68;0.68;;;23.30;59.70;;;;;;6217165;28;20030;-72
2022/08/28 06:59:40;;;;;;;0.88;0.40;;;23.30;59.80;;;;;;6217804;28;20084;-72
2022/08/28 07:02:40;;;;;;;0.85;0.50;;;23.30;59.80;;;;;;6217568;28;20090;-72
2022/08/28 07:05:41;;;;;;;0.70;0.60;;;23.30;59.80;;;;;;6217326;28;20105;-72
2022/08/28 07:08:43;;;;;;;0.50;0.50;;;23.30;59.80;;;;;;6221165;28;20120;-72
2022/08/28 07:11:48;;;;;;;1.20;0.52;;;23.30;59.80;;;;;;6217166;28;20022;-72
2022/08/28 07:14:48;;;;;;;0.75;0.55;;;23.30;59.80;;;;;;6217254;28;20025;-72
2022/08/28 07:17:50;;;;;;;0.50;0.50;;;23.30;59.80;;;;;;6172332;28;20564;-72
2022/08/28 07:20:57;;;;;;;0.60;0.47;;;23.30;59.80;;;;;;6166191;28;20723;-72
2022/08/28 07:23:58;;;;;;;0.45;0.40;;;23.30;59.80;;;;;;6165395;28;20035;-72
2022/08/28 07:26:59;;;;;;;0.52;0.45;;;23.30;59.80;;;;;;6166044;28;20152;-71
2022/08/28 07:30:00;;;;;;;0.60;0.57;;;23.30;59.80;;;;;;6162273;28;20027;-72
2022/08/28 07:33:01;;;;;;;0.60;0.57;;;23.30;59.80;;;;;;6140786;29;20063;-72
2022/08/28 07:36:08;;;;;;;1.05;0.70;;;23.30;59.80;;;;;;6138588;29;20526;-72
2022/08/28 07:39:12;;;;;;;0.65;0.55;;;23.30;59.80;;;;;;6142149;28;20035;-71
2022/08/28 07:44:47;;;;;;;0.50;0.47;;;23.30;59.80;;;;;;6138513;29;20138;-71
2022/08/28 07:45:34;;;;;;;0.50;0.50;;;23.30;59.80;;;;;;6156277;28;20512;-71
2022/08/28 07:48:36;;;;;;;0.80;0.50;;;23.30;59.80;;;;;;6152381;28;20038;-71
2022/08/28 07:51:37;;;;;;;0.43;0.40;;;23.30;59.90;;;;;;6288330;28;20101;-72
2022/08/28 07:54:39;;;;;;;0.50;0.50;;;23.30;59.80;;;;;;6235440;28;20485;-72
2022/08/28 07:57:42;;;;;;;0.52;0.47;;;23.30;59.80;;;;;;6165134;28;20116;-72
2022/08/28 08:00:42;;;;;;;0.82;0.55;;;23.30;59.80;;;;;;6244563;28;20078;-71
2022/08/28 08:03:43;;;;;;;0.40;0.40;;;23.30;59.80;;;;;;6241638;28;20505;-72
2022/08/28 08:06:45;;;;;;;1.55;0.80;;;23.30;60.60;;;;;;6214378;28;20551;-72
2022/08/28 08:09:46;;;;;;;1.00;0.60;;;23.30;59.80;;;;;;6203383;28;20637;-72
2022/08/28 08:12:47;;;;;;;0.60;0.50;;;23.40;60.00;;;;;;6213027;28;20025;-72
2022/08/28 08:15:47;;;;;;;1.42;0.60;;;23.40;59.80;;;;;;6213096;28;20644;-72
2022/08/28 08:18:49;;;;;;;1.05;0.70;;;23.40;59.90;;;;;;6214781;28;20049;-73
2022/08/28 08:21:51;;;;;;;1.30;0.60;;;23.40;59.80;;;;;;6237858;28;20553;-72
2022/08/28 08:24:54;;;;;;;0.88;0.50;;;23.40;60.00;;;;;;6315546;28;20521;-72
2022/08/28 08:27:54;;;;;;;2.75;0.70;;;23.40;60.00;;;;;;6214266;28;20022;-72
2022/08/28 08:31:07;;;;;;;0.88;0.50;;;23.40;60.00;;;;;;6214547;28;20489;-72
2022/08/28 08:34:08;;;;;;;1.33;0.82;;;23.40;60.00;;;;;;6214483;28;20024;-73
2022/08/28 08:37:10;;;;;;;1.67;0.80;;;23.40;60.00;;;;;;6232573;28;20052;-73
2022/08/28 08:40:17;;;;;;;3.13;0.90;;;23.40;60.00;;;;;;6232260;28;20500;-72
2022/08/28 08:43:20;;;;;;;1.08;0.70;;;23.40;60.00;;;;;;6213244;28;20033;-72
2022/08/28 08:46:31;;;;;;;1.63;0.70;;;23.40;60.00;;;;;;6230853;28;20033;-72
2022/08/28 08:49:38;;;;;;;0.73;0.45;;;23.40;60.10;;;;;;6245031;28;20043;-73
2022/08/28 08:53:01;;;;;;;1.80;0.80;;;23.40;60.00;;;;;;6215139;28;20018;-72
2022/08/28 08:56:05;;;;;;;0.70;0.70;;;23.40;60.10;;;;;;6212973;28;20021;-72
2022/08/28 08:59:13;;;;;;;0.93;0.60;;;23.30;60.00;;;;;;6213081;28;20118;-73
2022/08/28 09:02:20;;;;;;;1.27;0.68;;;23.40;60.00;;;;;;6212902;28;20160;-72
2022/08/28 09:05:47;;;;;;;1.08;0.60;;;23.40;60.00;;;;;;6196271;28;20034;-73
2022/08/28 09:08:54;;;;;;;1.02;0.60;;;23.40;60.00;;;;;;6237603;28;20029;-72
2022/08/28 09:11:57;;;;;;;1.52;0.70;;;23.30;59.90;;;;;;6223176;28;20459;-72
2022/08/28 09:15:20;;;;;;;3.60;0.80;;;23.40;60.00;;;;;;6212400;28;20022;-72
2022/08/28 09:18:27;;;;;;;0.85;0.60;;;23.30;59.90;;;;;;6235919;28;20037;-73
2022/08/28 09:21:32;;;;;;;1.20;0.63;;;23.30;59.90;;;;;;6225830;28;20155;-73
2022/08/28 09:24:36;;;;;;;;;;;23.30;59.90;;;;;;6238328;28;20064;-73
2022/08/28 09:27:51;;;;;;;1.45;0.55;;;23.30;59.90;;;;;;6224838;28;19909;-72
2022/08/28 09:30:59;;;;;;;1.52;0.60;;;23.30;59.90;;;;;;6212371;28;20558;-72
2022/08/28 09:34:19;;;;;;;0.82;0.60;;;23.30;60.00;;;;;;6235768;28;20494;-73
2022/08/28 09:37:25;;;;;;;0.82;0.60;;;23.30;59.90;;;;;;6221026;28;20030;-73
2022/08/28 09:43:50;;;;;;;1.67;0.80;;;23.30;60.10;;;;;;6210115;28;20404;-72
2022/08/28 09:46:52;;;;;;;7.70;1.45;;;23.30;60.20;;;;;;6218401;28;20024;-73
2022/08/28 09:49:52;;;;;;;13.38;1.38;;;23.30;60.00;;;;;;6235242;28;20021;-73
2022/08/28 09:52:57;;;;;;;10.10;1.63;;;23.40;60.10;;;;;;6220078;28;20033;-72
2022/08/28 09:56:22;;;;;;;16.33;2.30;;;23.30;60.00;;;;;;6216444;28;20552;-72
2022/08/28 09:59:26;;;;;;;34.40;6.07;;;23.40;60.10;;;;;;6240834;28;20781;-72
2022/08/28 10:02:41;;;;;;;55.55;6.15;;;23.40;60.00;;;;;;6224756;28;20037;-73
2022/08/28 10:05:50;;;;;;;60.38;10.23;;;23.30;60.00;;;;;;6240035;28;20039;-73
2022/08/28 10:09:02;;;;;;;116.80;16.17;;;23.40;60.00;;;;;;6237464;28;20037;-73
2022/08/28 10:12:33;;;;;;;85.95;12.23;;;23.30;59.90;;;;;;6211972;28;20033;-73
2022/08/28 10:15:40;;;;;;;100.93;12.90;;;23.40;60.00;;;;;;6215848;28;20052;-73
2022/08/28 10:18:44;;;;;;;91.10;14.02;;;23.30;59.90;;;;;;6234496;28;20389;-73
2022/08/28 10:22:03;;;;;;;64.85;13.70;;;23.40;60.00;;;;;;6224718;28;20090;-73
2022/08/28 10:25:16;;;;;;;82.32;14.48;;;23.40;60.10;;;;;;6217054;28;20037;-73
2022/08/28 10:28:42;;;;;;;62.97;13.35;;;23.40;59.70;;;;;;6217624;28;20028;-72
2022/08/28 10:32:10;;;;;;;72.20;13.05;;;23.40;59.70;;;;;;6264710;28;20524;-72
2022/08/28 10:35:23;;;;;;;85.60;15.18;;;23.40;59.70;;;;;;6215722;28;20029;-73
2022/08/28 10:38:24;;;;;;;84.13;14.23;;;23.40;59.80;;;;;;6221800;28;20038;-72
2022/08/28 10:41:35;;;;;;;66.68;13.27;;;23.40;59.90;;;;;;6235474;28;20407;-72
2022/08/28 10:44:46;;;;;;;61.22;12.25;;;23.40;59.90;;;;;;6213755;28;20041;-72
2022/08/28 10:48:00;;;;;;;68.10;12.57;;;23.40;59.90;;;;;;6215402;28;20101;-73
2022/08/28 10:51:05;;;;;;;62.55;12.00;;;23.40;60.00;;;;;;6213717;28;20109;-72
2022/08/28 10:54:44;;;;;;;63.72;12.88;;;23.40;60.00;;;;;;6232513;28;20032;-73
2022/08/28 10:57:56;;;;;;;46.80;11.02;;;23.40;60.00;;;;;;6231430;28;20792;-72
2022/08/28 11:01:05;;;;;;;50.97;12.05;;;23.40;60.00;;;;;;6213597;28;20034;-73
2022/08/28 11:04:21;;;;;;;45.60;10.85;;;23.40;60.00;;;;;;6210865;28;20088;-74
2022/08/28 11:07:35;;;;;;;51.25;9.88;;;23.40;60.00;;;;;;6211167;28;20018;-73
2022/08/28 11:10:43;;;;;;;40.97;9.63;;;23.30;59.90;;;;;;6239039;28;20018;-73
2022/08/28 11:13:47;;;;;;;37.70;8.70;;;23.30;60.00;;;;;;6237781;28;20368;-73
2022/08/28 11:16:50;;;;;;;31.80;9.45;;;23.30;59.90;;;;;;6239568;28;20483;-73
2022/08/28 11:20:11;;;;;;;40.05;9.10;;;23.30;60.00;;;;;;6216561;28;20090;-74
2022/08/28 11:23:21;;;;;;;37.10;9.20;;;23.30;60.00;;;;;;6220943;28;20775;-72
2022/08/28 11:26:32;;;;;;;36.67;8.90;;;23.30;59.90;;;;;;6220285;28;20068;-73
2022/08/28 11:30:07;;;;;;;28.95;8.30;;;23.30;59.90;;;;;;6218200;28;20453;-72
2022/08/28 11:33:36;;;;;;;31.33;8.18;;;23.40;60.00;;;;;;6212338;28;20030;-73
2022/08/28 11:36:36;;;;;;;26.27;7.25;;;23.40;60.00;;;;;;6213833;28;20049;-73
2022/08/28 11:39:37;;;;;;;29.92;8.25;;;23.30;60.00;;;;;;6230307;28;20688;-72
2022/08/28 11:42:37;;;;;;;45.08;8.85;;;23.30;60.00;;;;;;6237128;28;20058;-72
2022/08/28 11:45:44;;;;;;;23.45;7.57;;;23.30;59.90;;;;;;6214059;28;20022;-73
2022/08/28 11:48:51;;;;;;;24.98;6.93;;;23.30;59.90;;;;;;6222476;28;20122;-72
2022/08/28 11:52:00;;;;;;;21.80;6.43;;;23.30;60.00;;;;;;6238281;28;20021;-72
2022/08/28 11:55:12;;;;;;;29.88;7.22;;;23.30;60.00;;;;;;6217945;28;20048;-73
2022/08/28 11:58:30;;;;;;;27.00;7.32;;;23.30;60.00;;;;;;6216656;28;20021;-72
2022/08/28 12:01:34;;;;;;;22.10;6.75;;;23.30;60.00;;;;;;6236655;28;20022;-72
2022/08/28 12:04:41;;;;;;;21.17;6.60;;;23.30;60.00;;;;;;6221830;28;20354;-73
2022/08/28 12:07:50;;;;;;;23.35;6.50;;;23.30;60.00;;;;;;6213209;28;20033;-73
2022/08/28 12:10:54;;;;;;;20.35;6.22;;;23.40;60.10;;;;;;6223461;28;20025;-73
2022/08/28 12:13:55;;;;;;;16.67;6.18;;;23.40;60.00;;;;;;6213532;28;20022;-74
2022/08/28 12:17:02;;;;;;;23.05;6.13;;;23.40;59.80;;;;;;6212265;28;20834;-73
2022/08/28 12:20:19;;;;;;;16.42;6.05;;;23.40;59.90;;;;;;6213294;28;20026;-73
2022/08/28 12:23:39;;;;;;;16.88;5.40;;;23.50;60.00;;;;;;6210894;28;20034;-73
2022/08/28 12:26:46;;;;;;;15.88;5.05;;;23.50;60.10;;;;;;6211691;28;20450;-73
2022/08/28 12:29:53;;;;;;;21.63;5.47;;;23.50;60.10;;;;;;6211786;28;20789;-73
2022/08/28 12:33:28;;;;;;;11.65;4.75;;;23.50;60.30;;;;;;6210683;28;20030;-73
2022/08/28 12:36:28;;;;;;;13.80;4.88;;;23.50;60.40;;;;;;6188774;28;20076;-73
2022/08/28 12:39:32;;;;;;;16.30;4.47;;;23.50;60.50;;;;;;6205146;28;20056;-73
2022/08/28 12:42:36;;;;;;;13.07;4.75;;;23.50;60.50;;;;;;6237649;28;20066;-73
2022/08/28 12:46:01;;;;;;;10.75;4.20;;;23.60;60.70;;;;;;6359245;27;20054;-73
2022/08/28 12:49:23;;;;;;;12.10;4.40;;;23.60;60.70;;;;;;6356716;27;20038;-73
2022/08/28 12:52:24;;;;;;;11.77;3.95;;;23.60;60.70;;;;;;6337232;28;20027;-73
2022/08/28 12:55:26;;;;;;;12.32;4.22;;;23.60;60.80;;;;;;6334537;27;20527;-73
2022/08/28 12:58:30;;;;;;;11.48;4.43;;;23.50;60.40;;;;;;6363367;27;20698;-72
2022/08/28 13:01:32;;;;;;;10.18;4.05;;;23.50;60.50;;;;;;6339333;27;20024;-72
2022/08/28 13:04:37;;;;;;;11.25;4.05;;;23.50;60.50;;;;;;6336048;28;20040;-72
2022/08/28 13:07:45;;;;;;;12.07;4.30;;;23.50;60.50;;;;;;6337451;28;20023;-72
2022/08/28 13:10:50;;;;;;;7.93;3.85;;;23.50;60.50;;;;;;6336018;28;20036;-72
2022/08/28 13:13:50;;;;;;;;;;;23.50;60.50;;;;;;6337383;28;20613;-72
2022/08/28 13:16:51;;;;;;;11.50;3.97;;;23.50;60.60;;;;;;6337223;28;19904;-72
2022/08/28 13:20:02;;;;;;;9.32;3.72;;;23.50;60.50;;;;;;6319107;28;20086;-72
2022/08/28 13:23:04;;;;;;;9.93;3.58;;;23.50;60.60;;;;;;6270442;28;20033;-72
2022/08/28 13:26:06;;;;;;;7.82;3.63;;;23.40;60.40;;;;;;6220253;28;20103;-73
2022/08/28 13:29:18;;;;;;;7.50;3.33;;;23.50;60.50;;;;;;6217095;28;20033;-73
2022/08/28 13:32:19;;;;;;;7.10;3.45;;;23.40;60.40;;;;;;6215976;28;20025;-72
2022/08/28 13:35:19;;;;;;;7.43;3.63;;;23.40;60.30;;;;;;6224176;28;20540;-71
2022/08/28 13:38:22;;;;;;;8.20;2.97;;;23.40;60.30;;;;;;6240200;28;20021;-72
2022/08/28 13:41:23;;;;;;;8.60;3.33;;;23.40;60.30;;;;;;6222375;28;20065;-72
2022/08/28 13:44:27;;;;;;;8.85;3.78;;;23.40;60.30;;;;;;6215606;28;20038;-73
2022/08/28 13:47:28;;;;;;;7.38;3.10;;;23.40;61.20;;;;;;6220705;28;20041;-73
2022/08/28 13:50:29;;;;;;;7.68;3.38;;;23.40;60.20;;;;;;6221485;28;20545;-73
2022/08/28 13:53:29;;;;;;;8.20;3.63;;;23.40;60.40;;;;;;6215935;28;20022;-73
2022/08/28 13:56:30;;;;;;;7.68;3.35;;;23.40;60.20;;;;;;6214672;28;20026;-73
2022/08/28 13:59:31;;;;;;;7.38;3.10;;;23.50;60.40;;;;;;6210267;28;20028;-72
2022/08/28 14:05:50;;;;;;;7.93;3.50;;;23.40;60.10;;;;;;6198724;28;20066;-72
2022/08/28 14:08:51;;;;;;;5.78;2.88;;;23.40;60.20;;;;;;6216312;28;20750;-72
2022/08/28 14:11:54;;;;;;;7.53;2.88;;;23.40;60.20;;;;;;6214759;28;20022;-72
2022/08/28 14:14:54;;;;;;;7.63;3.22;;;23.40;60.20;;;;;;6213958;28;20026;-74
2022/08/28 14:17:55;;;;;;;6.20;2.70;;;23.40;60.20;;;;;;6215957;28;20125;-73
2022/08/28 14:20:56;;;;;;;6.03;2.95;;;23.40;60.20;;;;;;6215981;28;20030;-73
2022/08/28 14:23:58;;;;;;;6.10;2.95;;;23.40;60.20;;;;;;6214801;28;20042;-72
2022/08/28 14:26:58;;;;;;;4.95;2.63;;;23.40;60.20;;;;;;6214117;28;20033;-72
2022/08/28 14:30:00;;;;;;;6.03;2.58;;;23.40;60.20;;;;;;6215362;28;20022;-73
2022/08/28 14:33:00;;;;;;;4.60;2.47;;;23.40;60.20;;;;;;6215719;28;20024;-72
2022/08/28 14:36:01;;;;;;;5.90;2.40;;;23.40;60.20;;;;;;6215021;28;20026;-71
2022/08/28 14:39:04;;;;;;;5.57;2.33;;;23.40;60.20;;;;;;6214252;28;20030;-71
2022/08/28 14:42:05;;;;;;;3.88;2.25;;;23.40;60.20;;;;;;6215802;28;20042;-72
2022/08/28 14:45:07;;;;;;;4.78;2.25;;;23.40;60.20;;;;;;6214447;28;20544;-74
2022/08/28 14:48:08;;;;;;;5.50;2.70;;;23.40;60.30;;;;;;6215456;28;20109;-73
2022/08/28 14:51:08;;;;;;;6.53;2.80;;;23.40;60.20;;;;;;6216168;28;20022;-73
2022/08/28 14:54:11;;;;;;;5.82;2.60;;;23.40;60.20;;;;;;6214457;28;20572;-73
2022/08/28 14:57:12;;;;;;;5.70;2.40;;;23.40;60.30;;;;;;6214771;28;20022;-70
2022/08/28 15:00:13;;;;;;;12.95;2.45;;;23.50;60.40;;;;;;6214043;28;20567;-70
2022/08/28 15:03:15;;;;;;;4.88;2.17;;;23.50;60.50;;;;;;6210624;28;20035;-70
2022/08/28 15:06:17;;;;;;;3.67;1.92;;;23.50;61.30;;;;;;6204008;28;20068;-71
2022/08/28 15:09:18;;;;;;;3.22;2.13;;;23.50;61.30;;;;;;6213601;28;20504;-71
2022/08/28 15:12:19;;;;;;;4.35;2.17;;;23.50;60.50;;;;;;6216035;28;20029;-71
2022/08/28 15:15:19;;;;;;;3.55;2.22;;;23.50;60.60;;;;;;6213740;28;20026;-70
2022/08/28 15:18:20;;;;;;;6.47;2.33;;;23.50;61.00;;;;;;6213431;28;20030;-71
2022/08/28 15:21:24;;;;;;;5.10;1.80;;;23.50;61.20;;;;;;6212508;28;20087;-71
2022/08/28 15:24:30;;;;;;;5.72;1.90;;;23.50;61.10;;;;;;6213558;28;20480;-71
2022/08/28 15:27:31;;;;;;;4.70;2.53;;;23.50;60.80;;;;;;6211787;28;20170;-70
2022/08/28 15:30:33;;;;;;;4.00;2.25;;;23.40;60.60;;;;;;6212097;28;20057;-70
2022/08/28 15:33:34;;;;;;;5.38;2.30;;;23.50;60.80;;;;;;6213152;28;20036;-71
2022/08/28 15:36:35;;;;;;;5.03;2.38;;;23.40;60.60;;;;;;6212333;28;20030;-71
2022/08/28 15:42:55;;;;;;;4.20;2.30;;;23.40;60.60;;;;;;6213514;28;20052;-70
2022/08/28 15:45:56;;;;;;;3.85;2.33;;;23.40;60.60;;;;;;6211842;28;20474;-71
2022/08/28 15:48:57;;;;;;;3.17;1.80;;;23.40;60.60;;;;;;6212083;28;20033;-70
2022/08/28 15:51:58;;;;;;;3.03;1.88;;;23.40;60.60;;;;;;6213352;28;20034;-70
2022/08/28 15:54:58;;;;;;;3.03;1.80;;;23.40;60.60;;;;;;6211345;28;20029;-71
2022/08/28 15:57:59;;;;;;;3.00;2.00;;;23.40;60.60;;;;;;6211712;28;20105;-71
2022/08/28 16:01:01;;;;;;;2.78;1.40;;;23.40;60.50;;;;;;6209965;28;20041;-71
2022/08/28 16:04:02;;;;;;;3.78;1.83;;;23.40;60.50;;;;;;6203947;28;20034;-71
2022/08/28 16:07:03;;;;;;;3.65;1.80;;;23.40;60.50;;;;;;6191608;28;20037;-71